sensor_id;sensor_type;location;lat;lon;timestamp;P1;durP1;ratioP1;P2;durP2;ratioP2
77322;SDS011;66384;51.052;9.850;2023-11-21T00:02:06;4.50;;;3.50;;
77322;SDS011;66384;51.052;9.850;2023-11-21T00:04:38;11.10;;;3.50;;
77322;SDS011;66384;51.052;9.850;2023-11-21T00:07:09;5.40;;;3.10;;
77322;SDS011;66384;51.052;9.850;2023-11-21T00:09:41;5.70;;;3.10;;
77322;SDS011;66384;51.052;9.850;2023-11-21T00:12:13;5.90;;;3.00;;
77322;SDS011;66384;51.052;9.850;2023-11-21T00:14:44;4.80;;;2.50;;
77322;SDS011;66384;51.052;9.850;2023-11-21T00:17:16;5.50;;;3.30;;
77322;SDS011;66384;51.052;9.850;2023-11-21T00:19:47;6.70;;;3.60;;
77322;SDS011;66384;51.052;9.850;2023-11-21T00:22:20;4.20;;;2.80;;
77322;SDS011;66384;51.052;9.850;2023-11-21T00:24:52;3.20;;;1.90;;
77322;SDS011;66384;51.052;9.850;2023-11-21T00:27:23;4.70;;;2.50;;
77322;SDS011;66384;51.052;9.850;2023-11-21T00:29:55;7.40;;;3.20;;
77322;SDS011;66384;51.052;9.850;2023-11-21T00:32:27;5.60;;;2.60;;
77322;SDS011;66384;51.052;9.850;2023-11-21T00:34:58;4.50;;;2.50;;
77322;SDS011;66384;51.052;9.850;2023-11-21T00:37:30;3.80;;;2.40;;
77322;SDS011;66384;51.052;9.850;2023-11-21T00:40:02;4.60;;;2.20;;
77322;SDS011;66384;51.052;9.850;2023-11-21T00:42:35;4.40;;;2.90;;
77322;SDS011;66384;51.052;9.850;2023-11-21T00:45:08;6.10;;;3.80;;
77322;SDS011;66384;51.052;9.850;2023-11-21T00:47:40;4.90;;;3.40;;
77322;SDS011;66384;51.052;9.850;2023-11-21T00:50:12;4.10;;;2.50;;
77322;SDS011;66384;51.052;9.850;2023-11-21T00:52:44;5.60;;;2.40;;
77322;SDS011;66384;51.052;9.850;2023-11-21T00:55:15;6.20;;;2.80;;
77322;SDS011;66384;51.052;9.850;2023-11-21T00:57:47;6.70;;;3.00;;
77322;SDS011;66384;51.052;9.850;2023-11-21T01:00:19;7.50;;;3.40;;
77322;SDS011;66384;51.052;9.850;2023-11-21T01:02:52;6.80;;;3.50;;
77322;SDS011;66384;51.052;9.850;2023-11-21T01:05:24;5.00;;;3.00;;
77322;SDS011;66384;51.052;9.850;2023-11-21T01:07:55;5.10;;;2.90;;
77322;SDS011;66384;51.052;9.850;2023-11-21T01:10:27;7.70;;;2.90;;
77322;SDS011;66384;51.052;9.850;2023-11-21T01:12:58;5.60;;;3.30;;
77322;SDS011;66384;51.052;9.850;2023-11-21T01:15:30;4.30;;;2.90;;
77322;SDS011;66384;51.052;9.850;2023-11-21T01:18:02;5.10;;;3.00;;
77322;SDS011;66384;51.052;9.850;2023-11-21T01:20:34;8.40;;;4.20;;
77322;SDS011;66384;51.052;9.850;2023-11-21T01:23:05;6.80;;;3.10;;
77322;SDS011;66384;51.052;9.850;2023-11-21T01:25:37;4.80;;;3.10;;
77322;SDS011;66384;51.052;9.850;2023-11-21T01:28:08;6.60;;;3.40;;
77322;SDS011;66384;51.052;9.850;2023-11-21T01:30:40;7.30;;;3.80;;
77322;SDS011;66384;51.052;9.850;2023-11-21T01:33:13;6.50;;;3.30;;
77322;SDS011;66384;51.052;9.850;2023-11-21T01:35:45;5.40;;;3.00;;
77322;SDS011;66384;51.052;9.850;2023-11-21T01:38:17;6.00;;;3.70;;
77322;SDS011;66384;51.052;9.850;2023-11-21T01:40:48;7.00;;;3.60;;
77322;SDS011;66384;51.052;9.850;2023-11-21T01:43:20;6.40;;;3.90;;
77322;SDS011;66384;51.052;9.850;2023-11-21T01:45:51;9.30;;;3.90;;
77322;SDS011;66384;51.052;9.850;2023-11-21T01:48:25;9.90;;;4.40;;
77322;SDS011;66384;51.052;9.850;2023-11-21T01:50:58;6.10;;;3.70;;
77322;SDS011;66384;51.052;9.850;2023-11-21T01:53:30;8.50;;;3.90;;
77322;SDS011;66384;51.052;9.850;2023-11-21T01:56:02;7.00;;;3.70;;
77322;SDS011;66384;51.052;9.850;2023-11-21T01:58:36;6.90;;;4.10;;
77322;SDS011;66384;51.052;9.850;2023-11-21T02:01:08;6.20;;;3.80;;
77322;SDS011;66384;51.052;9.850;2023-11-21T02:03:40;5.90;;;3.70;;
77322;SDS011;66384;51.052;9.850;2023-11-21T02:06:11;6.30;;;3.60;;
77322;SDS011;66384;51.052;9.850;2023-11-21T02:08:43;8.20;;;4.10;;
77322;SDS011;66384;51.052;9.850;2023-11-21T02:11:15;7.50;;;4.20;;
77322;SDS011;66384;51.052;9.850;2023-11-21T02:13:48;5.00;;;3.60;;
77322;SDS011;66384;51.052;9.850;2023-11-21T02:16:22;6.70;;;3.70;;
77322;SDS011;66384;51.052;9.850;2023-11-21T02:18:55;11.10;;;5.50;;
77322;SDS011;66384;51.052;9.850;2023-11-21T02:21:28;8.10;;;5.20;;
77322;SDS011;66384;51.052;9.850;2023-11-21T02:24:00;9.30;;;5.50;;
77322;SDS011;66384;51.052;9.850;2023-11-21T02:26:31;11.40;;;4.60;;
77322;SDS011;66384;51.052;9.850;2023-11-21T02:29:03;5.60;;;3.90;;
77322;SDS011;66384;51.052;9.850;2023-11-21T02:31:39;7.60;;;4.40;;
77322;SDS011;66384;51.052;9.850;2023-11-21T02:34:17;7.20;;;3.90;;
77322;SDS011;66384;51.052;9.850;2023-11-21T02:36:49;5.70;;;3.50;;
77322;SDS011;66384;51.052;9.850;2023-11-21T02:39:20;5.60;;;3.10;;
77322;SDS011;66384;51.052;9.850;2023-11-21T02:41:53;5.80;;;3.30;;
77322;SDS011;66384;51.052;9.850;2023-11-21T02:44:24;7.40;;;4.20;;
77322;SDS011;66384;51.052;9.850;2023-11-21T02:46:56;6.80;;;3.80;;
77322;SDS011;66384;51.052;9.850;2023-11-21T02:49:29;7.60;;;3.70;;
77322;SDS011;66384;51.052;9.850;2023-11-21T02:52:00;6.40;;;3.40;;
77322;SDS011;66384;51.052;9.850;2023-11-21T02:54:32;9.50;;;3.50;;
77322;SDS011;66384;51.052;9.850;2023-11-21T02:57:05;6.70;;;3.60;;
77322;SDS011;66384;51.052;9.850;2023-11-21T02:59:37;7.30;;;3.60;;
77322;SDS011;66384;51.052;9.850;2023-11-21T03:02:08;5.20;;;3.00;;
77322;SDS011;66384;51.052;9.850;2023-11-21T03:04:40;5.50;;;3.20;;
77322;SDS011;66384;51.052;9.850;2023-11-21T03:07:12;6.10;;;3.10;;
77322;SDS011;66384;51.052;9.850;2023-11-21T03:09:44;4.80;;;3.20;;
77322;SDS011;66384;51.052;9.850;2023-11-21T03:12:16;5.20;;;3.40;;
77322;SDS011;66384;51.052;9.850;2023-11-21T03:14:48;9.60;;;3.60;;
77322;SDS011;66384;51.052;9.850;2023-11-21T03:17:19;6.40;;;4.20;;
77322;SDS011;66384;51.052;9.850;2023-11-21T03:19:51;8.30;;;3.90;;
77322;SDS011;66384;51.052;9.850;2023-11-21T03:22:23;8.70;;;3.60;;
77322;SDS011;66384;51.052;9.850;2023-11-21T03:24:55;7.30;;;3.50;;
77322;SDS011;66384;51.052;9.850;2023-11-21T03:27:27;6.40;;;3.00;;
77322;SDS011;66384;51.052;9.850;2023-11-21T03:29:58;6.40;;;4.00;;
77322;SDS011;66384;51.052;9.850;2023-11-21T03:32:32;8.20;;;5.00;;
77322;SDS011;66384;51.052;9.850;2023-11-21T03:35:06;6.70;;;4.20;;
77322;SDS011;66384;51.052;9.850;2023-11-21T03:37:38;9.20;;;4.20;;
77322;SDS011;66384;51.052;9.850;2023-11-21T03:40:11;9.00;;;3.60;;
77322;SDS011;66384;51.052;9.850;2023-11-21T03:42:42;5.80;;;3.40;;
77322;SDS011;66384;51.052;9.850;2023-11-21T03:45:14;9.00;;;4.30;;
77322;SDS011;66384;51.052;9.850;2023-11-21T03:47:46;11.20;;;5.60;;
77322;SDS011;66384;51.052;9.850;2023-11-21T03:50:17;11.30;;;5.60;;
77322;SDS011;66384;51.052;9.850;2023-11-21T03:52:49;12.80;;;6.50;;
77322;SDS011;66384;51.052;9.850;2023-11-21T03:55:20;9.80;;;4.40;;
77322;SDS011;66384;51.052;9.850;2023-11-21T03:57:53;8.10;;;4.00;;
77322;SDS011;66384;51.052;9.850;2023-11-21T04:00:25;9.60;;;4.60;;
77322;SDS011;66384;51.052;9.850;2023-11-21T04:02:58;7.40;;;3.40;;
77322;SDS011;66384;51.052;9.850;2023-11-21T04:05:30;6.60;;;3.90;;
77322;SDS011;66384;51.052;9.850;2023-11-21T04:08:01;7.80;;;3.20;;
77322;SDS011;66384;51.052;9.850;2023-11-21T04:10:33;7.50;;;4.30;;
77322;SDS011;66384;51.052;9.850;2023-11-21T04:13:05;6.60;;;3.60;;
77322;SDS011;66384;51.052;9.850;2023-11-21T04:15:36;7.30;;;4.30;;
77322;SDS011;66384;51.052;9.850;2023-11-21T04:18:08;7.30;;;4.00;;
77322;SDS011;66384;51.052;9.850;2023-11-21T04:20:39;5.50;;;3.40;;
77322;SDS011;66384;51.052;9.850;2023-11-21T04:23:11;6.60;;;4.40;;
77322;SDS011;66384;51.052;9.850;2023-11-21T04:25:42;6.00;;;4.00;;
77322;SDS011;66384;51.052;9.850;2023-11-21T04:28:14;8.30;;;4.00;;
77322;SDS011;66384;51.052;9.850;2023-11-21T04:30:46;5.20;;;3.40;;
77322;SDS011;66384;51.052;9.850;2023-11-21T04:33:17;7.40;;;3.80;;
77322;SDS011;66384;51.052;9.850;2023-11-21T04:35:50;6.30;;;3.20;;
77322;SDS011;66384;51.052;9.850;2023-11-21T04:38:22;6.70;;;4.10;;
77322;SDS011;66384;51.052;9.850;2023-11-21T04:40:53;7.40;;;4.10;;
77322;SDS011;66384;51.052;9.850;2023-11-21T04:43:25;9.10;;;3.90;;
77322;SDS011;66384;51.052;9.850;2023-11-21T04:45:57;6.60;;;3.70;;
77322;SDS011;66384;51.052;9.850;2023-11-21T04:48:29;6.90;;;4.30;;
77322;SDS011;66384;51.052;9.850;2023-11-21T04:51:00;6.90;;;4.10;;
77322;SDS011;66384;51.052;9.850;2023-11-21T04:53:33;5.20;;;3.70;;
77322;SDS011;66384;51.052;9.850;2023-11-21T04:56:05;5.80;;;3.70;;
77322;SDS011;66384;51.052;9.850;2023-11-21T04:58:37;6.40;;;3.80;;
77322;SDS011;66384;51.052;9.850;2023-11-21T05:01:09;8.10;;;3.90;;
77322;SDS011;66384;51.052;9.850;2023-11-21T05:03:41;5.40;;;3.40;;
77322;SDS011;66384;51.052;9.850;2023-11-21T05:06:13;5.10;;;3.50;;
77322;SDS011;66384;51.052;9.850;2023-11-21T05:08:44;7.30;;;3.40;;
77322;SDS011;66384;51.052;9.850;2023-11-21T05:11:24;6.50;;;3.70;;
77322;SDS011;66384;51.052;9.850;2023-11-21T05:13:56;5.00;;;3.30;;
77322;SDS011;66384;51.052;9.850;2023-11-21T05:16:30;6.10;;;3.50;;
77322;SDS011;66384;51.052;9.850;2023-11-21T05:19:02;5.60;;;3.30;;
77322;SDS011;66384;51.052;9.850;2023-11-21T05:21:35;6.50;;;3.30;;
77322;SDS011;66384;51.052;9.850;2023-11-21T05:24:07;7.00;;;3.80;;
77322;SDS011;66384;51.052;9.850;2023-11-21T05:26:38;8.10;;;3.80;;
77322;SDS011;66384;51.052;9.850;2023-11-21T05:29:10;9.30;;;3.90;;
77322;SDS011;66384;51.052;9.850;2023-11-21T05:31:41;10.60;;;5.00;;
77322;SDS011;66384;51.052;9.850;2023-11-21T05:34:13;7.90;;;4.90;;
77322;SDS011;66384;51.052;9.850;2023-11-21T05:36:46;9.90;;;6.20;;
77322;SDS011;66384;51.052;9.850;2023-11-21T05:39:18;13.00;;;7.20;;
77322;SDS011;66384;51.052;9.850;2023-11-21T05:41:50;10.30;;;7.00;;
77322;SDS011;66384;51.052;9.850;2023-11-21T05:44:22;7.50;;;5.20;;
77322;SDS011;66384;51.052;9.850;2023-11-21T05:46:53;10.90;;;3.90;;
77322;SDS011;66384;51.052;9.850;2023-11-21T05:49:27;5.90;;;3.70;;
77322;SDS011;66384;51.052;9.850;2023-11-21T05:51:59;9.40;;;3.80;;
77322;SDS011;66384;51.052;9.850;2023-11-21T05:54:31;8.40;;;4.00;;
77322;SDS011;66384;51.052;9.850;2023-11-21T05:57:03;7.90;;;3.80;;
77322;SDS011;66384;51.052;9.850;2023-11-21T05:59:35;8.00;;;3.90;;
77322;SDS011;66384;51.052;9.850;2023-11-21T06:02:06;6.50;;;3.50;;
77322;SDS011;66384;51.052;9.850;2023-11-21T06:04:39;6.60;;;3.70;;
77322;SDS011;66384;51.052;9.850;2023-11-21T06:07:11;9.80;;;5.50;;
77322;SDS011;66384;51.052;9.850;2023-11-21T06:09:43;15.90;;;7.90;;
77322;SDS011;66384;51.052;9.850;2023-11-21T06:12:15;17.70;;;7.60;;
77322;SDS011;66384;51.052;9.850;2023-11-21T06:14:49;15.20;;;4.70;;
77322;SDS011;66384;51.052;9.850;2023-11-21T06:17:21;9.30;;;4.40;;
77322;SDS011;66384;51.052;9.850;2023-11-21T06:19:54;7.40;;;3.50;;
77322;SDS011;66384;51.052;9.850;2023-11-21T06:22:25;6.80;;;3.50;;
77322;SDS011;66384;51.052;9.850;2023-11-21T06:24:59;5.00;;;3.30;;
77322;SDS011;66384;51.052;9.850;2023-11-21T06:27:33;7.50;;;3.20;;
77322;SDS011;66384;51.052;9.850;2023-11-21T06:30:08;6.70;;;3.40;;
77322;SDS011;66384;51.052;9.850;2023-11-21T06:32:41;5.40;;;3.30;;
77322;SDS011;66384;51.052;9.850;2023-11-21T06:35:15;9.90;;;3.40;;
77322;SDS011;66384;51.052;9.850;2023-11-21T06:37:47;5.00;;;3.00;;
77322;SDS011;66384;51.052;9.850;2023-11-21T06:40:20;5.60;;;3.00;;
77322;SDS011;66384;51.052;9.850;2023-11-21T06:42:52;6.40;;;4.00;;
77322;SDS011;66384;51.052;9.850;2023-11-21T06:45:24;7.10;;;3.80;;
77322;SDS011;66384;51.052;9.850;2023-11-21T06:47:56;7.50;;;4.70;;
77322;SDS011;66384;51.052;9.850;2023-11-21T06:50:27;8.60;;;5.30;;
77322;SDS011;66384;51.052;9.850;2023-11-21T06:52:59;11.40;;;6.60;;
77322;SDS011;66384;51.052;9.850;2023-11-21T06:55:35;19.30;;;8.50;;
77322;SDS011;66384;51.052;9.850;2023-11-21T06:58:07;16.10;;;7.50;;
77322;SDS011;66384;51.052;9.850;2023-11-21T07:00:39;16.30;;;5.90;;
77322;SDS011;66384;51.052;9.850;2023-11-21T07:03:15;15.50;;;5.60;;
77322;SDS011;66384;51.052;9.850;2023-11-21T07:05:48;12.90;;;4.80;;
77322;SDS011;66384;51.052;9.850;2023-11-21T07:08:19;8.90;;;4.10;;
77322;SDS011;66384;51.052;9.850;2023-11-21T07:10:51;6.90;;;4.00;;
77322;SDS011;66384;51.052;9.850;2023-11-21T07:13:23;8.30;;;4.30;;
77322;SDS011;66384;51.052;9.850;2023-11-21T07:15:55;9.80;;;4.10;;
77322;SDS011;66384;51.052;9.850;2023-11-21T07:18:27;6.60;;;4.00;;
77322;SDS011;66384;51.052;9.850;2023-11-21T07:20:59;8.10;;;4.10;;
77322;SDS011;66384;51.052;9.850;2023-11-21T07:23:31;52.60;;;20.10;;
77322;SDS011;66384;51.052;9.850;2023-11-21T07:26:03;213.90;;;89.00;;
77322;SDS011;66384;51.052;9.850;2023-11-21T07:28:37;197.50;;;87.10;;
77322;SDS011;66384;51.052;9.850;2023-11-21T07:31:09;139.60;;;58.40;;
77322;SDS011;66384;51.052;9.850;2023-11-21T07:33:41;113.10;;;53.50;;
77322;SDS011;66384;51.052;9.850;2023-11-21T07:36:15;47.60;;;22.40;;
77322;SDS011;66384;51.052;9.850;2023-11-21T07:38:47;22.80;;;11.10;;
77322;SDS011;66384;51.052;9.850;2023-11-21T07:41:19;16.30;;;6.80;;
77322;SDS011;66384;51.052;9.850;2023-11-21T07:43:59;10.60;;;5.00;;
77322;SDS011;66384;51.052;9.850;2023-11-21T07:46:31;12.70;;;6.40;;
77322;SDS011;66384;51.052;9.850;2023-11-21T07:49:02;13.90;;;6.60;;
77322;SDS011;66384;51.052;9.850;2023-11-21T07:51:34;30.10;;;12.50;;
77322;SDS011;66384;51.052;9.850;2023-11-21T07:54:06;38.60;;;14.60;;
77322;SDS011;66384;51.052;9.850;2023-11-21T07:56:37;24.10;;;10.90;;
77322;SDS011;66384;51.052;9.850;2023-11-21T07:59:09;27.40;;;11.80;;
77322;SDS011;66384;51.052;9.850;2023-11-21T08:01:41;26.90;;;12.20;;
77322;SDS011;66384;51.052;9.850;2023-11-21T08:04:14;46.90;;;20.90;;
77322;SDS011;66384;51.052;9.850;2023-11-21T08:06:46;54.00;;;23.90;;
77322;SDS011;66384;51.052;9.850;2023-11-21T08:09:17;45.70;;;23.70;;
77322;SDS011;66384;51.052;9.850;2023-11-21T08:11:52;30.10;;;15.20;;
77322;SDS011;66384;51.052;9.850;2023-11-21T08:14:24;34.40;;;17.70;;
77322;SDS011;66384;51.052;9.850;2023-11-21T08:16:55;40.10;;;18.90;;
77322;SDS011;66384;51.052;9.850;2023-11-21T08:19:28;57.90;;;26.00;;
77322;SDS011;66384;51.052;9.850;2023-11-21T08:22:00;63.70;;;27.80;;
77322;SDS011;66384;51.052;9.850;2023-11-21T08:24:32;46.10;;;24.20;;
77322;SDS011;66384;51.052;9.850;2023-11-21T08:27:04;50.60;;;22.90;;
77322;SDS011;66384;51.052;9.850;2023-11-21T08:29:36;47.50;;;23.10;;
77322;SDS011;66384;51.052;9.850;2023-11-21T08:32:07;46.00;;;23.80;;
77322;SDS011;66384;51.052;9.850;2023-11-21T08:34:39;45.80;;;22.50;;
77322;SDS011;66384;51.052;9.850;2023-11-21T08:37:15;42.90;;;20.40;;
77322;SDS011;66384;51.052;9.850;2023-11-21T08:39:47;42.00;;;23.00;;
77322;SDS011;66384;51.052;9.850;2023-11-21T08:42:19;50.10;;;23.00;;
77322;SDS011;66384;51.052;9.850;2023-11-21T08:44:51;34.20;;;16.70;;
77322;SDS011;66384;51.052;9.850;2023-11-21T08:47:23;32.80;;;14.60;;
77322;SDS011;66384;51.052;9.850;2023-11-21T08:49:55;29.80;;;14.60;;
77322;SDS011;66384;51.052;9.850;2023-11-21T08:52:28;24.50;;;12.80;;
77322;SDS011;66384;51.052;9.850;2023-11-21T08:54:59;19.30;;;11.30;;
77322;SDS011;66384;51.052;9.850;2023-11-21T08:57:36;19.30;;;10.00;;
77322;SDS011;66384;51.052;9.850;2023-11-21T09:00:10;17.70;;;8.60;;
77322;SDS011;66384;51.052;9.850;2023-11-21T09:02:44;15.30;;;8.30;;
77322;SDS011;66384;51.052;9.850;2023-11-21T09:05:17;13.10;;;8.80;;
77322;SDS011;66384;51.052;9.850;2023-11-21T09:07:49;16.40;;;8.20;;
77322;SDS011;66384;51.052;9.850;2023-11-21T09:10:21;14.60;;;8.20;;
77322;SDS011;66384;51.052;9.850;2023-11-21T09:12:54;12.00;;;7.60;;
77322;SDS011;66384;51.052;9.850;2023-11-21T09:15:27;14.10;;;8.60;;
77322;SDS011;66384;51.052;9.850;2023-11-21T09:17:59;16.30;;;9.60;;
77322;SDS011;66384;51.052;9.850;2023-11-21T09:20:31;17.80;;;9.60;;
77322;SDS011;66384;51.052;9.850;2023-11-21T09:23:02;23.30;;;12.60;;
77322;SDS011;66384;51.052;9.850;2023-11-21T09:25:35;26.70;;;14.20;;
77322;SDS011;66384;51.052;9.850;2023-11-21T09:28:07;23.20;;;12.40;;
77322;SDS011;66384;51.052;9.850;2023-11-21T09:30:39;21.20;;;12.80;;
77322;SDS011;66384;51.052;9.850;2023-11-21T09:33:11;26.70;;;12.60;;
77322;SDS011;66384;51.052;9.850;2023-11-21T09:35:43;22.40;;;12.50;;
77322;SDS011;66384;51.052;9.850;2023-11-21T09:38:16;25.70;;;13.60;;
77322;SDS011;66384;51.052;9.850;2023-11-21T09:40:48;19.50;;;10.40;;
77322;SDS011;66384;51.052;9.850;2023-11-21T09:43:22;20.20;;;12.20;;
77322;SDS011;66384;51.052;9.850;2023-11-21T09:45:56;28.00;;;14.60;;
77322;SDS011;66384;51.052;9.850;2023-11-21T09:48:32;25.90;;;14.00;;
77322;SDS011;66384;51.052;9.850;2023-11-21T09:51:06;27.60;;;15.40;;
77322;SDS011;66384;51.052;9.850;2023-11-21T09:53:40;28.70;;;15.20;;
77322;SDS011;66384;51.052;9.850;2023-11-21T09:56:15;28.40;;;14.80;;
77322;SDS011;66384;51.052;9.850;2023-11-21T09:58:53;28.60;;;13.60;;
77322;SDS011;66384;51.052;9.850;2023-11-21T10:01:26;17.70;;;10.40;;
77322;SDS011;66384;51.052;9.850;2023-11-21T10:03:59;17.70;;;9.60;;
77322;SDS011;66384;51.052;9.850;2023-11-21T10:06:32;18.40;;;10.40;;
77322;SDS011;66384;51.052;9.850;2023-11-21T10:09:04;13.60;;;7.40;;
77322;SDS011;66384;51.052;9.850;2023-11-21T10:11:41;16.40;;;8.00;;
77322;SDS011;66384;51.052;9.850;2023-11-21T10:14:13;16.40;;;7.50;;
77322;SDS011;66384;51.052;9.850;2023-11-21T10:16:50;10.30;;;5.60;;
77322;SDS011;66384;51.052;9.850;2023-11-21T10:19:23;10.60;;;5.90;;
77322;SDS011;66384;51.052;9.850;2023-11-21T10:21:56;13.20;;;5.40;;
77322;SDS011;66384;51.052;9.850;2023-11-21T10:24:29;10.50;;;5.60;;
77322;SDS011;66384;51.052;9.850;2023-11-21T10:27:13;11.60;;;6.10;;
77322;SDS011;66384;51.052;9.850;2023-11-21T10:29:44;16.90;;;7.80;;
77322;SDS011;66384;51.052;9.850;2023-11-21T10:32:16;16.10;;;7.70;;
77322;SDS011;66384;51.052;9.850;2023-11-21T10:34:56;14.80;;;7.30;;
77322;SDS011;66384;51.052;9.850;2023-11-21T10:37:31;11.60;;;6.40;;
77322;SDS011;66384;51.052;9.850;2023-11-21T10:40:03;20.20;;;7.10;;
77322;SDS011;66384;51.052;9.850;2023-11-21T10:42:36;11.50;;;6.20;;
77322;SDS011;66384;51.052;9.850;2023-11-21T10:45:08;13.70;;;7.40;;
77322;SDS011;66384;51.052;9.850;2023-11-21T10:47:43;12.70;;;7.10;;
77322;SDS011;66384;51.052;9.850;2023-11-21T10:50:15;15.40;;;6.50;;
77322;SDS011;66384;51.052;9.850;2023-11-21T10:52:49;13.90;;;7.20;;
77322;SDS011;66384;51.052;9.850;2023-11-21T10:55:22;15.40;;;7.70;;
77322;SDS011;66384;51.052;9.850;2023-11-21T10:57:55;15.70;;;7.00;;
77322;SDS011;66384;51.052;9.850;2023-11-21T11:00:31;14.30;;;7.80;;
77322;SDS011;66384;51.052;9.850;2023-11-21T11:03:03;21.20;;;9.30;;
77322;SDS011;66384;51.052;9.850;2023-11-21T11:05:42;16.40;;;7.70;;
77322;SDS011;66384;51.052;9.850;2023-11-21T11:08:21;18.00;;;9.60;;
77322;SDS011;66384;51.052;9.850;2023-11-21T11:10:56;17.90;;;8.50;;
77322;SDS011;66384;51.052;9.850;2023-11-21T11:13:28;18.60;;;8.50;;
77322;SDS011;66384;51.052;9.850;2023-11-21T11:16:00;14.20;;;8.70;;
77322;SDS011;66384;51.052;9.850;2023-11-21T11:18:35;12.20;;;6.60;;
77322;SDS011;66384;51.052;9.850;2023-11-21T11:21:10;19.80;;;7.40;;
77322;SDS011;66384;51.052;9.850;2023-11-21T11:23:54;13.10;;;6.30;;
77322;SDS011;66384;51.052;9.850;2023-11-21T11:26:39;14.10;;;7.60;;
77322;SDS011;66384;51.052;9.850;2023-11-21T11:29:21;16.50;;;7.90;;
77322;SDS011;66384;51.052;9.850;2023-11-21T11:32:03;11.80;;;6.60;;
77322;SDS011;66384;51.052;9.850;2023-11-21T11:34:47;12.50;;;7.30;;
77322;SDS011;66384;51.052;9.850;2023-11-21T11:37:24;15.50;;;8.20;;
77322;SDS011;66384;51.052;9.850;2023-11-21T11:39:56;16.30;;;8.40;;
77322;SDS011;66384;51.052;9.850;2023-11-21T11:42:28;15.90;;;7.40;;
77322;SDS011;66384;51.052;9.850;2023-11-21T11:45:02;16.50;;;8.10;;
77322;SDS011;66384;51.052;9.850;2023-11-21T11:47:49;14.90;;;7.10;;
77322;SDS011;66384;51.052;9.850;2023-11-21T11:50:29;14.00;;;6.70;;
77322;SDS011;66384;51.052;9.850;2023-11-21T11:53:13;15.60;;;6.80;;
77322;SDS011;66384;51.052;9.850;2023-11-21T11:55:46;12.50;;;6.10;;
77322;SDS011;66384;51.052;9.850;2023-11-21T11:58:48;11.60;;;5.40;;
77322;SDS011;66384;51.052;9.850;2023-11-21T12:01:21;12.70;;;6.40;;
77322;SDS011;66384;51.052;9.850;2023-11-21T12:07:07;15.70;;;6.70;;
77322;SDS011;66384;51.052;9.850;2023-11-21T12:09:39;10.20;;;5.40;;
77322;SDS011;66384;51.052;9.850;2023-11-21T12:12:11;9.50;;;5.20;;
77322;SDS011;66384;51.052;9.850;2023-11-21T12:14:45;12.60;;;5.90;;
77322;SDS011;66384;51.052;9.850;2023-11-21T12:17:17;10.80;;;5.60;;
77322;SDS011;66384;51.052;9.850;2023-11-21T12:19:49;10.30;;;5.40;;
77322;SDS011;66384;51.052;9.850;2023-11-21T12:22:21;12.10;;;5.90;;
77322;SDS011;66384;51.052;9.850;2023-11-21T12:24:53;10.90;;;5.70;;
77322;SDS011;66384;51.052;9.850;2023-11-21T12:27:26;11.30;;;7.30;;
77322;SDS011;66384;51.052;9.850;2023-11-21T12:29:59;10.40;;;6.90;;
77322;SDS011;66384;51.052;9.850;2023-11-21T12:32:30;9.90;;;6.30;;
77322;SDS011;66384;51.052;9.850;2023-11-21T12:35:02;13.30;;;7.00;;
77322;SDS011;66384;51.052;9.850;2023-11-21T12:37:35;11.30;;;6.70;;
77322;SDS011;66384;51.052;9.850;2023-11-21T12:40:08;11.20;;;6.50;;
77322;SDS011;66384;51.052;9.850;2023-11-21T12:42:44;9.80;;;7.00;;
77322;SDS011;66384;51.052;9.850;2023-11-21T12:45:21;14.20;;;7.50;;
77322;SDS011;66384;51.052;9.850;2023-11-21T12:47:56;9.60;;;5.50;;
77322;SDS011;66384;51.052;9.850;2023-11-21T12:50:30;10.80;;;6.30;;
77322;SDS011;66384;51.052;9.850;2023-11-21T12:53:03;12.30;;;9.00;;
77322;SDS011;66384;51.052;9.850;2023-11-21T12:55:37;12.30;;;7.40;;
77322;SDS011;66384;51.052;9.850;2023-11-21T12:58:11;11.20;;;5.90;;
77322;SDS011;66384;51.052;9.850;2023-11-21T13:00:44;12.30;;;5.90;;
77322;SDS011;66384;51.052;9.850;2023-11-21T13:03:17;9.60;;;5.70;;
77322;SDS011;66384;51.052;9.850;2023-11-21T13:05:54;10.80;;;6.00;;
77322;SDS011;66384;51.052;9.850;2023-11-21T13:08:27;8.50;;;5.30;;
77322;SDS011;66384;51.052;9.850;2023-11-21T13:11:01;9.70;;;5.50;;
77322;SDS011;66384;51.052;9.850;2023-11-21T13:13:34;14.50;;;8.70;;
77322;SDS011;66384;51.052;9.850;2023-11-21T13:16:08;11.90;;;7.70;;
77322;SDS011;66384;51.052;9.850;2023-11-21T13:18:40;17.50;;;10.50;;
77322;SDS011;66384;51.052;9.850;2023-11-21T13:21:12;14.40;;;8.60;;
77322;SDS011;66384;51.052;9.850;2023-11-21T13:23:44;17.30;;;8.50;;
77322;SDS011;66384;51.052;9.850;2023-11-21T13:26:17;12.50;;;7.20;;
77322;SDS011;66384;51.052;9.850;2023-11-21T13:28:52;11.60;;;5.60;;
77322;SDS011;66384;51.052;9.850;2023-11-21T13:31:25;7.70;;;4.30;;
77322;SDS011;66384;51.052;9.850;2023-11-21T13:34:00;6.30;;;3.70;;
77322;SDS011;66384;51.052;9.850;2023-11-21T13:36:34;5.80;;;3.40;;
77322;SDS011;66384;51.052;9.850;2023-11-21T13:39:06;4.60;;;2.90;;
77322;SDS011;66384;51.052;9.850;2023-11-21T13:41:44;5.60;;;2.70;;
77322;SDS011;66384;51.052;9.850;2023-11-21T13:44:18;3.30;;;2.20;;
77322;SDS011;66384;51.052;9.850;2023-11-21T13:46:56;6.90;;;3.40;;
77322;SDS011;66384;51.052;9.850;2023-11-21T13:49:28;4.70;;;3.10;;
77322;SDS011;66384;51.052;9.850;2023-11-21T13:52:04;8.20;;;4.30;;
77322;SDS011;66384;51.052;9.850;2023-11-21T13:54:36;13.00;;;6.20;;
77322;SDS011;66384;51.052;9.850;2023-11-21T13:57:07;11.10;;;5.30;;
77322;SDS011;66384;51.052;9.850;2023-11-21T13:59:39;18.90;;;8.10;;
77322;SDS011;66384;51.052;9.850;2023-11-21T14:02:12;29.70;;;12.00;;
77322;SDS011;66384;51.052;9.850;2023-11-21T14:04:47;23.90;;;10.00;;
77322;SDS011;66384;51.052;9.850;2023-11-21T14:07:25;15.40;;;7.10;;
77322;SDS011;66384;51.052;9.850;2023-11-21T14:10:05;28.90;;;11.50;;
77322;SDS011;66384;51.052;9.850;2023-11-21T14:12:43;52.10;;;19.80;;
77322;SDS011;66384;51.052;9.850;2023-11-21T14:15:15;22.90;;;10.10;;
77322;SDS011;66384;51.052;9.850;2023-11-21T14:17:48;7.20;;;4.10;;
77322;SDS011;66384;51.052;9.850;2023-11-21T14:20:19;7.20;;;3.50;;
77322;SDS011;66384;51.052;9.850;2023-11-21T14:22:52;7.00;;;3.20;;
77322;SDS011;66384;51.052;9.850;2023-11-21T14:25:24;5.10;;;2.90;;
77322;SDS011;66384;51.052;9.850;2023-11-21T14:27:56;4.50;;;3.00;;
77322;SDS011;66384;51.052;9.850;2023-11-21T14:30:28;4.40;;;3.00;;
77322;SDS011;66384;51.052;9.850;2023-11-21T14:33:00;6.20;;;2.80;;
77322;SDS011;66384;51.052;9.850;2023-11-21T14:35:32;4.50;;;2.70;;
77322;SDS011;66384;51.052;9.850;2023-11-21T14:38:04;4.90;;;3.10;;
77322;SDS011;66384;51.052;9.850;2023-11-21T14:40:36;5.20;;;3.10;;
77322;SDS011;66384;51.052;9.850;2023-11-21T14:43:08;5.10;;;2.90;;
77322;SDS011;66384;51.052;9.850;2023-11-21T14:45:40;4.80;;;2.90;;
77322;SDS011;66384;51.052;9.850;2023-11-21T14:48:11;5.40;;;3.30;;
77322;SDS011;66384;51.052;9.850;2023-11-21T14:50:45;4.40;;;2.80;;
77322;SDS011;66384;51.052;9.850;2023-11-21T14:53:41;4.80;;;3.10;;
77322;SDS011;66384;51.052;9.850;2023-11-21T14:56:22;5.10;;;3.30;;
77322;SDS011;66384;51.052;9.850;2023-11-21T14:58:59;4.70;;;3.20;;
77322;SDS011;66384;51.052;9.850;2023-11-21T15:01:37;6.10;;;3.70;;
77322;SDS011;66384;51.052;9.850;2023-11-21T15:04:23;7.30;;;4.90;;
77322;SDS011;66384;51.052;9.850;2023-11-21T15:07:05;9.50;;;4.80;;
77322;SDS011;66384;51.052;9.850;2023-11-21T15:09:37;9.80;;;6.60;;
77322;SDS011;66384;51.052;9.850;2023-11-21T15:12:11;9.60;;;5.40;;
77322;SDS011;66384;51.052;9.850;2023-11-21T15:14:44;7.20;;;4.40;;
77322;SDS011;66384;51.052;9.850;2023-11-21T15:17:21;8.50;;;5.00;;